createdAt,value
2022-10-05T00:00:19.823Z,87.33
2022-10-05T00:02:48.454Z,86.71
2022-10-05T00:05:25.355Z,86.82
2022-10-05T00:07:53.956Z,87.29
2022-10-05T00:10:20.623Z,87.16
2022-10-05T00:12:48.480Z,87.29
2022-10-05T00:15:17.829Z,86.91
2022-10-05T00:17:44.332Z,86.83
2022-10-05T00:20:21.745Z,86.97
2022-10-05T00:22:48.754Z,87.21
2022-10-05T00:25:19.141Z,86.21
2022-10-05T00:27:53.709Z,86.91
2022-10-05T00:30:23.093Z,87.30
2022-10-05T00:32:50.053Z,86.62
2022-10-05T00:35:18.263Z,87.41
2022-10-05T00:37:47.059Z,87.54
2022-10-05T00:40:41.624Z,87.34
2022-10-05T00:43:51.775Z,87.44
2022-10-05T00:46:27.933Z,87.42
2022-10-05T00:49:11.066Z,87.33
2022-10-05T00:51:39.059Z,87.29
2022-10-05T00:54:18.230Z,87.12
2022-10-05T00:57:04.774Z,87.07
2022-10-05T00:59:37.339Z,87.06
2022-10-05T01:02:26.274Z,87.09
2022-10-05T01:05:05.430Z,87.38
2022-10-05T01:07:50.686Z,87.40
2022-10-05T01:10:26.221Z,87.48
2022-10-05T01:13:11.934Z,87.54
2022-10-05T01:16:16.212Z,87.21
2022-10-05T01:19:05.325Z,87.31
2022-10-05T01:21:41.568Z,87.36
2022-10-05T01:24:43.010Z,87.91
2022-10-05T01:27:28.095Z,87.57
2022-10-05T01:30:04.181Z,87.67
2022-10-05T01:32:42.586Z,87.27
2022-10-05T01:35:29.278Z,87.34
2022-10-05T01:38:13.565Z,87.56
2022-10-05T01:41:11.550Z,87.64
2022-10-05T01:43:47.539Z,87.54
2022-10-05T01:46:30.518Z,87.56
2022-10-05T01:49:21.254Z,87.95
2022-10-05T01:52:02.455Z,87.77
2022-10-05T01:54:55.368Z,87.89
2022-10-05T01:57:30.290Z,88.09
2022-10-05T02:00:10.582Z,88.06
2022-10-05T02:02:59.518Z,88.25
2022-10-05T02:05:36.376Z,88.01
2022-10-05T02:08:19.951Z,87.95
2022-10-05T02:10:55.720Z,88.02
2022-10-05T02:13:39.311Z,88.15
2022-10-05T02:16:16.798Z,88.45
2022-10-05T02:18:54.381Z,88.18
2022-10-05T02:21:21.899Z,88.22
2022-10-05T02:23:51.908Z,88.31
2022-10-05T02:26:19.583Z,88.32
2022-10-05T02:28:55.355Z,88.39
2022-10-05T02:31:45.822Z,88.52
2022-10-05T02:34:29.035Z,88.67
2022-10-05T02:37:03.079Z,88.44
2022-10-05T02:39:38.915Z,88.66
2022-10-05T02:42:47.709Z,89.08
2022-10-05T02:45:30.804Z,89.20
2022-10-05T02:48:32.306Z,88.35
2022-10-05T02:51:11.963Z,88.85
2022-10-05T02:54:03.852Z,88.81
2022-10-05T02:56:58.149Z,88.57
2022-10-05T02:59:56.757Z,88.76
2022-10-05T03:02:35.679Z,88.29
2022-10-05T03:05:07.224Z,88.22
2022-10-05T03:08:00.879Z,88.29
2022-10-05T03:10:39.475Z,88.59
2022-10-05T03:13:24.068Z,88.81
2022-10-05T03:16:15.551Z,88.21
2022-10-05T03:19:19.773Z,88.53
2022-10-05T03:21:52.222Z,88.78
2022-10-05T03:24:35.552Z,88.53
2022-10-05T03:27:44.646Z,89.15
2022-10-05T03:30:18.282Z,89.20
2022-10-05T03:32:55.706Z,88.82
2022-10-05T03:35:58.398Z,88.39
2022-10-05T03:39:06.545Z,88.84
2022-10-05T03:41:50.430Z,89.00
2022-10-05T03:44:33.987Z,88.91
2022-10-05T03:47:19.736Z,89.17
2022-10-05T03:50:17.587Z,88.09
2022-10-05T03:52:51.326Z,88.80
2022-10-05T03:55:42.198Z,88.61
2022-10-05T03:58:28.051Z,89.18
2022-10-05T04:01:03.867Z,89.09
2022-10-05T04:03:38.176Z,88.92
2022-10-05T04:06:22.483Z,89.01
2022-10-05T04:08:59.189Z,88.89
2022-10-05T04:11:33.058Z,89.50
2022-10-05T04:14:07.307Z,89.33
2022-10-05T04:16:59.396Z,89.22
2022-10-05T04:19:36.654Z,88.90
2022-10-05T04:22:23.111Z,89.22
2022-10-05T04:24:57.463Z,88.99
2022-10-05T04:27:33.137Z,89.37
2022-10-05T04:30:17.968Z,88.90
2022-10-05T04:32:59.065Z,89.20
2022-10-05T04:35:43.596Z,89.54
2022-10-05T04:38:49.042Z,89.67
2022-10-05T04:41:29.364Z,90.32
2022-10-05T04:44:13.295Z,90.37
2022-10-05T04:47:15.187Z,90.10
2022-10-05T04:49:54.471Z,90.57
2022-10-05T04:52:26.719Z,90.67
2022-10-05T04:55:26.026Z,90.84
2022-10-05T04:58:23.278Z,90.74
2022-10-05T05:01:02.900Z,90.90
2022-10-05T05:04:03.181Z,91.13
2022-10-05T05:07:00.093Z,91.48
2022-10-05T05:09:50.138Z,91.64
2022-10-05T05:12:48.282Z,91.25
2022-10-05T05:15:28.229Z,91.18
2022-10-05T05:18:28.111Z,92.06
2022-10-05T05:21:00.416Z,92.08
2022-10-05T05:23:47.119Z,92.34
2022-10-05T05:26:38.907Z,92.85
2022-10-05T05:29:30.222Z,93.01
2022-10-05T05:32:24.618Z,92.46
2022-10-05T05:34:51.177Z,92.34
2022-10-05T05:37:47.013Z,92.33
2022-10-05T05:40:26.174Z,92.64
2022-10-05T05:42:59.339Z,92.48
2022-10-05T05:46:04.915Z,92.47
2022-10-05T05:48:44.363Z,92.97
2022-10-05T05:51:25.775Z,92.96
2022-10-05T05:54:05.320Z,92.58
2022-10-05T05:56:40.102Z,91.71
2022-10-05T05:59:17.434Z,91.52
2022-10-05T06:01:49.212Z,92.23
2022-10-05T06:04:22.515Z,92.17
2022-10-05T06:06:52.666Z,91.86
2022-10-05T06:09:32.030Z,91.64
2022-10-05T06:12:25.280Z,91.84
2022-10-05T06:14:59.506Z,91.74
2022-10-05T06:17:39.995Z,91.58
2022-10-05T06:20:15.666Z,91.37
2022-10-05T06:22:45.884Z,91.62
2022-10-05T06:25:13.481Z,91.29
2022-10-05T06:28:16.367Z,91.13
2022-10-05T06:31:09.368Z,90.67
2022-10-05T06:33:53.798Z,90.41
2022-10-05T06:36:53.179Z,90.34
2022-10-05T06:39:39.049Z,89.48
2022-10-05T06:42:51.292Z,88.99
2022-10-05T06:46:13.056Z,89.06
2022-10-05T06:49:29.490Z,88.37
2022-10-05T06:52:21.524Z,88.33
2022-10-05T06:55:19.595Z,88.38
2022-10-05T06:58:05.426Z,88.42
2022-10-05T07:00:42.751Z,88.25
2022-10-05T07:03:23.516Z,87.56
2022-10-05T07:05:59.309Z,86.61
2022-10-05T07:08:40.915Z,86.05
2022-10-05T07:11:29.370Z,85.97
2022-10-05T07:13:55.902Z,85.89
2022-10-05T07:16:45.411Z,86.39
2022-10-05T07:19:37.086Z,85.86
2022-10-05T07:24:58.031Z,86.00
2022-10-05T07:27:34.806Z,85.96
2022-10-05T07:30:02.744Z,85.96
2022-10-05T07:33:06.697Z,85.77
2022-10-05T07:36:21.802Z,85.53
2022-10-05T07:38:58.469Z,85.39
2022-10-05T07:41:32.761Z,85.39
2022-10-05T07:44:13.391Z,85.03
2022-10-05T07:47:09.851Z,85.59
2022-10-05T07:49:45.409Z,85.75
2022-10-05T07:52:23.722Z,86.25
2022-10-05T07:55:21.387Z,84.96
2022-10-05T07:57:53.612Z,84.47
2022-10-05T08:00:22.366Z,83.98
2022-10-05T08:03:01.428Z,83.52
2022-10-05T08:05:33.792Z,82.93
2022-10-05T08:08:26.992Z,82.43
2022-10-05T08:11:18.917Z,81.13
2022-10-05T08:14:03.204Z,80.16
2022-10-05T08:16:36.830Z,79.74
2022-10-05T08:19:26.034Z,79.02
2022-10-05T08:21:59.577Z,79.97
2022-10-05T08:24:33.909Z,79.52
2022-10-05T08:27:26.279Z,79.57
2022-10-05T08:30:06.540Z,79.93
2022-10-05T08:32:50.310Z,78.99
2022-10-05T08:35:35.022Z,78.15
2022-10-05T08:38:07.900Z,78.59
2022-10-05T08:40:49.747Z,78.17
2022-10-05T08:43:22.842Z,78.37
2022-10-05T08:46:17.675Z,78.29
2022-10-05T08:49:16.251Z,77.99
2022-10-05T08:51:56.656Z,77.84
2022-10-05T08:54:54.611Z,78.10
2022-10-05T08:57:56.074Z,78.11
2022-10-05T09:00:25.749Z,78.17
2022-10-05T09:03:04.330Z,78.19
2022-10-05T09:05:49.573Z,76.60
2022-10-05T09:08:34.879Z,75.78
2022-10-05T09:11:06.945Z,76.05
2022-10-05T09:13:52.217Z,74.58
2022-10-05T09:16:40.594Z,74.49
2022-10-05T09:19:30.617Z,74.20
2022-10-05T09:22:22.287Z,73.51
2022-10-05T09:24:56.492Z,72.29
2022-10-05T09:27:38.022Z,72.52
2022-10-05T09:30:13.132Z,72.46
2022-10-05T09:33:17.401Z,72.91
2022-10-05T09:36:05.495Z,73.27
2022-10-05T09:38:56.149Z,72.96
2022-10-05T09:42:01.363Z,73.19
2022-10-05T09:44:50.041Z,72.78
2022-10-05T09:47:24.762Z,72.70
2022-10-05T09:49:59.263Z,73.13
2022-10-05T09:52:38.138Z,72.92
2022-10-05T09:55:27.933Z,73.00
2022-10-05T09:58:16.742Z,73.19
2022-10-05T10:01:15.527Z,72.49
2022-10-05T10:04:09.754Z,72.33
2022-10-05T10:06:55.050Z,72.22
2022-10-05T10:09:38.499Z,72.62
2022-10-05T10:12:23.254Z,72.73
2022-10-05T10:15:18.072Z,73.37
2022-10-05T10:18:27.941Z,73.56
2022-10-05T10:21:09.565Z,73.73
2022-10-05T10:24:00.310Z,74.17
2022-10-05T10:26:58.448Z,73.50
2022-10-05T10:29:46.413Z,73.34
2022-10-05T10:32:42.013Z,73.36
2022-10-05T10:35:31.879Z,72.60
2022-10-05T10:38:40.394Z,72.42
2022-10-05T10:41:25.781Z,72.21
2022-10-05T10:44:30.773Z,72.05
2022-10-05T10:47:16.236Z,70.92
2022-10-05T10:50:04.968Z,70.45
2022-10-05T10:53:02.849Z,70.76
2022-10-05T10:55:36.978Z,70.12
2022-10-05T10:58:34.927Z,69.87
2022-10-05T11:01:35.031Z,69.90
2022-10-05T11:04:37.124Z,69.35
2022-10-05T11:07:39.452Z,69.60
2022-10-05T11:10:35.482Z,67.93
2022-10-05T11:13:28.470Z,67.85
2022-10-05T11:16:04.174Z,68.10
2022-10-05T11:19:08.252Z,67.53
2022-10-05T11:22:00.524Z,66.67
2022-10-05T11:24:59.271Z,67.46
2022-10-05T11:28:09.041Z,67.15
2022-10-05T11:30:54.357Z,67.83
2022-10-05T11:33:54.844Z,66.53
2022-10-05T11:36:43.063Z,66.38
2022-10-05T11:39:30.598Z,67.70
2022-10-05T11:42:30.672Z,67.47
2022-10-05T11:45:23.890Z,67.29
2022-10-05T11:48:23.113Z,66.71
2022-10-05T11:51:09.447Z,66.61
2022-10-05T11:53:50.352Z,66.36
2022-10-05T11:56:36.030Z,66.24
2022-10-05T11:59:15.118Z,66.34
2022-10-05T12:01:55.790Z,66.31
2022-10-05T12:04:34.117Z,64.96
2022-10-05T12:07:14.836Z,64.78
2022-10-05T12:10:14.354Z,65.34
2022-10-05T12:12:50.019Z,64.99
2022-10-05T12:15:24.344Z,64.97
2022-10-05T12:17:59.260Z,64.25
2022-10-05T12:20:34.919Z,63.87
2022-10-05T12:23:25.084Z,62.73
2022-10-05T12:26:05.359Z,61.83
2022-10-05T12:28:47.267Z,61.98
2022-10-05T12:31:41.464Z,61.23
2022-10-05T12:34:34.248Z,61.01
2022-10-05T12:37:12.810Z,61.00
2022-10-05T12:40:02.439Z,60.59
2022-10-05T12:42:41.735Z,60.87
2022-10-05T12:45:33.992Z,60.45
2022-10-05T12:48:33.074Z,61.41
2022-10-05T12:51:16.799Z,60.95
2022-10-05T12:54:03.674Z,61.22
2022-10-05T12:56:43.543Z,61.10
2022-10-05T12:59:23.000Z,60.38
2022-10-05T13:02:14.165Z,60.92
2022-10-05T13:05:02.534Z,60.70
2022-10-05T13:07:50.588Z,61.16
2022-10-05T13:10:32.998Z,60.43
2022-10-05T13:13:17.758Z,60.99
2022-10-05T13:15:58.181Z,60.00
2022-10-05T13:18:32.862Z,59.91
2022-10-05T13:21:23.309Z,59.75
2022-10-05T13:24:14.816Z,59.92
2022-10-05T13:26:46.112Z,60.08
2022-10-05T13:29:51.042Z,60.03
2022-10-05T13:32:27.917Z,60.33
2022-10-05T13:34:59.602Z,59.41
2022-10-05T13:37:33.898Z,60.43
2022-10-05T13:40:10.329Z,60.35
2022-10-05T13:42:53.803Z,59.49
2022-10-05T13:45:25.184Z,59.55
2022-10-05T13:47:58.434Z,59.90
2022-10-05T13:50:35.396Z,59.53
2022-10-05T13:53:25.399Z,59.65
2022-10-05T13:56:14.766Z,60.07
2022-10-05T13:59:18.813Z,59.76
2022-10-05T14:02:03.117Z,59.38
2022-10-05T14:04:42.491Z,59.47
2022-10-05T14:07:32.076Z,59.26
2022-10-05T14:10:02.141Z,59.05
2022-10-05T14:12:39.468Z,58.86
2022-10-05T14:15:41.267Z,58.94
2022-10-05T14:18:24.823Z,58.91
2022-10-05T14:21:03.165Z,59.66
2022-10-05T14:23:30.493Z,59.68
2022-10-05T14:25:57.429Z,59.71
2022-10-05T14:28:30.281Z,58.92
2022-10-05T14:31:14.632Z,59.30
2022-10-05T14:33:41.722Z,59.07
2022-10-05T14:36:22.397Z,58.38
2022-10-05T14:39:02.126Z,58.42
2022-10-05T14:41:33.935Z,58.32
2022-10-05T14:44:09.427Z,58.07
2022-10-05T14:46:37.224Z,58.23
2022-10-05T14:49:27.949Z,57.84
2022-10-05T14:51:56.315Z,57.41
2022-10-05T14:54:28.852Z,56.86
2022-10-05T14:57:10.558Z,57.42
2022-10-05T15:00:16.422Z,57.80
2022-10-05T15:03:10.659Z,57.20
2022-10-05T15:05:49.694Z,58.33
2022-10-05T15:08:41.417Z,58.85
2022-10-05T15:11:19.127Z,59.09
2022-10-05T15:13:48.523Z,59.42
2022-10-05T15:16:38.222Z,60.10
2022-10-05T15:19:13.403Z,59.81
2022-10-05T15:22:01.974Z,60.03
2022-10-05T15:24:55.845Z,59.92
2022-10-05T15:27:55.444Z,60.23
2022-10-05T15:30:22.225Z,60.01
2022-10-05T15:33:15.486Z,60.77
2022-10-05T15:36:00.562Z,61.30
2022-10-05T15:38:36.738Z,61.55
2022-10-05T15:41:23.562Z,61.73
2022-10-05T15:44:00.636Z,62.24
2022-10-05T15:46:50.589Z,62.62
2022-10-05T15:49:40.647Z,63.16
2022-10-05T15:52:26.761Z,63.54
2022-10-05T15:55:09.079Z,64.11
2022-10-05T15:58:00.253Z,64.37
2022-10-05T16:00:40.446Z,65.02
2022-10-05T16:03:37.211Z,65.44
2022-10-05T16:06:31.878Z,65.51
2022-10-05T16:09:21.273Z,66.00
2022-10-05T16:12:03.114Z,66.31
2022-10-05T16:14:39.267Z,66.69
2022-10-05T16:17:40.905Z,67.29
2022-10-05T16:20:22.543Z,67.60
2022-10-05T16:22:59.506Z,68.34
2022-10-05T16:25:40.010Z,68.64
2022-10-05T16:28:16.003Z,69.06
2022-10-05T16:31:22.058Z,69.55
2022-10-05T16:34:25.954Z,69.47
2022-10-05T16:37:03.293Z,69.98
2022-10-05T16:39:51.902Z,70.49
2022-10-05T16:42:46.583Z,71.71
2022-10-05T16:45:22.018Z,71.31
2022-10-05T16:48:08.554Z,72.48
2022-10-05T16:50:49.588Z,72.57
2022-10-05T16:53:32.166Z,73.23
2022-10-05T16:56:06.966Z,73.37
2022-10-05T16:58:52.364Z,73.27
2022-10-05T17:01:37.046Z,73.93
2022-10-05T17:04:06.707Z,74.71
2022-10-05T17:06:40.105Z,75.25
2022-10-05T17:09:44.298Z,76.46
2022-10-05T17:12:29.387Z,76.58
2022-10-05T17:15:23.779Z,77.79
2022-10-05T17:18:30.773Z,79.06
2022-10-05T17:21:07.850Z,79.25
2022-10-05T17:23:58.998Z,79.41
2022-10-05T17:27:17.715Z,79.98
2022-10-05T17:29:51.279Z,79.73
2022-10-05T17:32:17.665Z,79.73
2022-10-05T17:35:00.394Z,80.49
2022-10-05T17:37:39.286Z,80.44
2022-10-05T17:40:33.078Z,81.97
2022-10-05T17:43:05.428Z,81.26
2022-10-05T17:45:32.000Z,81.76
2022-10-05T17:48:04.334Z,82.26
2022-10-05T17:51:03.338Z,82.82
2022-10-05T17:54:03.749Z,82.85
2022-10-05T17:56:55.951Z,82.73
2022-10-05T17:59:56.755Z,82.79
2022-10-05T18:02:39.781Z,82.69
2022-10-05T18:05:12.051Z,82.84
2022-10-05T18:07:48.095Z,83.01
2022-10-05T18:10:29.203Z,83.46
2022-10-05T18:12:58.791Z,83.38
2022-10-05T18:15:26.570Z,83.64
2022-10-05T18:17:58.599Z,83.57
2022-10-05T18:20:46.337Z,83.28
2022-10-05T18:23:18.897Z,84.07
2022-10-05T18:25:51.942Z,83.69
2022-10-05T18:29:13.556Z,83.30
2022-10-05T18:31:51.313Z,81.83
2022-10-05T18:34:28.988Z,79.71
2022-10-05T18:37:21.231Z,78.09
2022-10-05T18:39:56.694Z,76.06
2022-10-05T18:42:48.644Z,74.99
2022-10-05T18:45:37.010Z,73.91
2022-10-05T18:48:22.144Z,72.94
2022-10-05T18:51:00.647Z,72.24
2022-10-05T18:54:10.978Z,72.82
2022-10-05T18:56:47.777Z,72.45
2022-10-05T18:59:18.352Z,72.12
2022-10-05T19:01:59.248Z,71.28
2022-10-05T19:04:48.903Z,71.81
2022-10-05T19:07:38.339Z,71.19
2022-10-05T19:10:39.380Z,71.01
2022-10-05T19:13:10.622Z,70.79
2022-10-05T19:15:44.114Z,70.57
2022-10-05T19:18:48.137Z,70.58
2022-10-05T19:21:41.822Z,70.46
2022-10-05T19:24:42.855Z,70.23
2022-10-05T19:27:44.265Z,70.33
2022-10-05T19:30:23.583Z,70.10
2022-10-05T19:33:05.058Z,70.25
2022-10-05T19:35:37.414Z,69.92
2022-10-05T19:41:17.300Z,70.78
2022-10-05T19:44:04.194Z,71.60
2022-10-05T19:46:55.755Z,71.43
2022-10-05T19:49:37.115Z,71.34
2022-10-05T19:52:11.648Z,70.93
2022-10-05T19:54:38.211Z,71.44
2022-10-05T19:57:17.719Z,70.51
2022-10-05T19:59:48.331Z,70.59
2022-10-05T20:02:16.975Z,70.87
2022-10-05T20:04:48.237Z,71.22
2022-10-05T20:07:22.904Z,71.19
2022-10-05T20:09:50.122Z,71.33
2022-10-05T20:12:16.735Z,72.27
2022-10-05T20:15:03.736Z,72.05
2022-10-05T20:17:48.694Z,72.13
2022-10-05T20:20:34.133Z,71.97
2022-10-05T20:23:23.579Z,71.67
2022-10-05T20:26:10.711Z,71.63
2022-10-05T20:28:37.529Z,71.65
2022-10-05T20:31:07.319Z,71.94
2022-10-05T20:33:34.521Z,71.35
2022-10-05T20:36:06.690Z,71.10
2022-10-05T20:38:40.037Z,71.15
2022-10-05T20:41:07.505Z,71.50
2022-10-05T20:43:35.737Z,71.64
2022-10-05T20:46:04.029Z,71.66
2022-10-05T20:48:30.911Z,71.99
2022-10-05T20:50:58.302Z,71.87
2022-10-05T20:53:25.076Z,72.18
2022-10-05T20:55:51.915Z,71.99
2022-10-05T20:58:18.514Z,71.95
2022-10-05T21:01:04.490Z,72.33
2022-10-05T21:03:31.032Z,72.20
2022-10-05T21:05:59.150Z,73.13
2022-10-05T21:08:26.939Z,73.36
2022-10-05T21:10:54.383Z,73.15
2022-10-05T21:13:20.825Z,73.27
2022-10-05T21:15:47.320Z,73.58
2022-10-05T21:18:15.645Z,73.51
2022-10-05T21:20:42.055Z,74.00
2022-10-05T21:23:08.469Z,73.53
2022-10-05T21:25:40.843Z,72.96
2022-10-05T21:28:07.481Z,74.01
2022-10-05T21:30:34.029Z,74.27
2022-10-05T21:33:00.488Z,74.21
2022-10-05T21:35:27.578Z,73.48
2022-10-05T21:37:54.205Z,73.74
2022-10-05T21:40:20.717Z,73.44
2022-10-05T21:42:47.139Z,74.00
2022-10-05T21:45:13.676Z,73.16
2022-10-05T21:47:40.591Z,73.08
2022-10-05T21:50:08.518Z,73.40
2022-10-05T21:52:35.828Z,73.79
2022-10-05T21:55:04.128Z,73.79
2022-10-05T21:57:30.760Z,73.15
2022-10-05T21:59:57.376Z,73.20
2022-10-05T22:02:23.823Z,72.55
2022-10-05T22:04:50.781Z,72.66
2022-10-05T22:07:19.269Z,72.65
2022-10-05T22:09:50.097Z,72.60
2022-10-05T22:12:20.226Z,72.60
2022-10-05T22:14:47.622Z,72.40
2022-10-05T22:17:19.330Z,72.41
2022-10-05T22:19:45.886Z,72.30
2022-10-05T22:22:12.322Z,72.23
2022-10-05T22:24:39.206Z,71.64
2022-10-05T22:27:06.024Z,72.18
2022-10-05T22:29:40.594Z,71.82
2022-10-05T22:32:07.174Z,72.36
2022-10-05T22:34:34.102Z,72.45
2022-10-05T22:37:02.023Z,72.80
2022-10-05T22:39:28.889Z,72.75
2022-10-05T22:41:56.749Z,73.04
2022-10-05T22:44:23.304Z,72.81
2022-10-05T22:46:50.058Z,73.77
2022-10-05T22:49:16.506Z,73.71
2022-10-05T22:51:42.931Z,73.27
2022-10-05T22:54:09.490Z,73.76
2022-10-05T22:56:35.975Z,73.49
2022-10-05T23:01:54.276Z,74.19
2022-10-05T23:04:20.915Z,74.37
2022-10-05T23:06:47.791Z,74.13
2022-10-05T23:09:14.297Z,73.73
2022-10-05T23:11:40.738Z,73.84
2022-10-05T23:14:07.167Z,73.85
2022-10-05T23:16:34.055Z,73.83
2022-10-05T23:19:00.531Z,73.93
2022-10-05T23:21:30.339Z,73.82
2022-10-05T23:23:56.894Z,73.75
2022-10-05T23:26:26.571Z,73.51
2022-10-05T23:28:53.261Z,74.16
2022-10-05T23:31:23.136Z,74.25
2022-10-05T23:33:49.730Z,74.00
2022-10-05T23:36:19.135Z,74.04
2022-10-05T23:38:46.106Z,73.55
2022-10-05T23:41:13.380Z,73.73
2022-10-05T23:43:40.129Z,73.91
2022-10-05T23:46:07.381Z,74.30
2022-10-05T23:48:38.187Z,74.02
2022-10-05T23:51:06.826Z,74.25
2022-10-05T23:53:34.155Z,74.95
2022-10-05T23:56:00.692Z,74.39
2022-10-05T23:58:28.176Z,73.80
